Kingston, New Jersey
Current Conditions -  °F | °C
As of 2:53 AM on Sunday 26 Oct 2014 (Local Time) from KTTN Reporting Station
Broken Clouds Broken Clouds  
Wind Chill: 60°   Ceiling: 9000
Heat Index: 60°   Visibility: 10mi
Dew Point: 45°   Wind: 6mph
Humidity: 57%   Direction: 270°W
Pressure: 29.59"   Gusts: NA
Location:  40.38°N, 74.61°W
Report Text: KTTN 260653Z AUTO 27005KT 10SM BKN090 16/07 A2959 RMK AO2 SLP012 T01560072
Loading
Personal Weather Stations






























Interactive Weather Map
Tropical Storm Tracking
New forecast layout! Learn more

10-Day Weather Forecast

Advertisements
Track Severe Weather on mobile